createdAt,value
2023-02-25T00:01:11.776Z,99.90
2023-02-25T00:05:13.907Z,99.90
2023-02-25T00:09:15.636Z,99.90
2023-02-25T00:13:18.559Z,99.90
2023-02-25T00:17:20.344Z,99.90
2023-02-25T00:21:22.622Z,99.90
2023-02-25T00:25:24.282Z,99.90
2023-02-25T00:29:25.926Z,99.90
2023-02-25T00:33:27.546Z,99.90
2023-02-25T00:37:29.205Z,99.90
2023-02-25T00:41:30.958Z,99.90
2023-02-25T00:45:34.188Z,99.90
2023-02-25T00:49:36.345Z,99.90
2023-02-25T00:53:38.546Z,99.90
2023-02-25T00:57:40.256Z,99.90
2023-02-25T01:01:42.620Z,99.90
2023-02-25T01:05:49.183Z,99.90
2023-02-25T01:09:50.943Z,99.90
2023-02-25T01:13:53.332Z,99.90
2023-02-25T01:17:54.956Z,99.90
2023-02-25T01:21:58.718Z,99.90
2023-02-25T01:26:02.535Z,99.90
2023-02-25T01:30:05.333Z,99.90
2023-02-25T01:34:09.373Z,99.90
2023-02-25T01:38:11.070Z,99.90
2023-02-25T01:42:17.381Z,99.90
2023-02-25T01:46:19.034Z,99.90
2023-02-25T01:50:24.110Z,99.90
2023-02-25T01:54:25.879Z,99.90
2023-02-25T01:58:27.926Z,99.90
2023-02-25T02:02:33.139Z,99.90
2023-02-25T02:06:41.139Z,99.90
2023-02-25T02:10:42.788Z,99.90
2023-02-25T02:14:44.404Z,99.90
2023-02-25T02:18:53.197Z,99.90
2023-02-25T02:23:16.354Z,99.90
2023-02-25T02:27:32.474Z,99.90
2023-02-25T02:31:48.879Z,99.90
2023-02-25T02:36:04.056Z,99.90
2023-02-25T02:40:15.239Z,99.90
2023-02-25T02:44:51.974Z,99.90
2023-02-25T02:49:01.071Z,99.90
2023-02-25T02:53:17.588Z,99.90
2023-02-25T02:57:21.995Z,99.90
2023-02-25T03:01:29.774Z,99.90
2023-02-25T03:05:35.059Z,99.90
2023-02-25T03:09:46.129Z,99.90
2023-02-25T03:13:48.367Z,99.90
2023-02-25T03:17:57.435Z,99.90
2023-02-25T03:22:14.390Z,99.90
2023-02-25T03:26:28.059Z,99.90
2023-02-25T03:30:39.158Z,99.90
2023-02-25T03:34:45.033Z,99.90
2023-02-25T03:38:50.865Z,99.90
2023-02-25T03:43:02.100Z,99.90
2023-02-25T03:47:05.681Z,99.90
2023-02-25T03:51:08.345Z,99.90
2023-02-25T03:55:11.853Z,99.90
2023-02-25T03:59:14.250Z,99.90
2023-02-25T04:03:15.911Z,99.90
2023-02-25T04:07:17.603Z,99.90
2023-02-25T04:11:19.397Z,99.90
2023-02-25T04:15:21.666Z,99.90
2023-02-25T04:19:23.336Z,99.90
2023-02-25T04:23:25.008Z,99.90
2023-02-25T04:27:27.178Z,99.90
2023-02-25T04:31:28.876Z,99.90
2023-02-25T04:35:30.766Z,99.90
2023-02-25T04:39:32.918Z,99.90
2023-02-25T04:43:34.519Z,99.90
2023-02-25T04:47:36.493Z,99.90
2023-02-25T04:51:39.325Z,99.90
2023-02-25T04:55:40.992Z,99.90
2023-02-25T04:59:42.720Z,99.90
2023-02-25T05:03:44.450Z,99.90
2023-02-25T05:07:46.222Z,99.90
2023-02-25T05:11:47.972Z,99.90
2023-02-25T05:15:49.912Z,99.90
2023-02-25T05:19:51.599Z,99.90
2023-02-25T05:23:54.093Z,99.90
2023-02-25T05:27:55.702Z,99.90
2023-02-25T05:31:57.447Z,99.90
2023-02-25T05:35:59.359Z,99.90
2023-02-25T05:40:01.195Z,99.90
2023-02-25T05:44:02.827Z,99.90
2023-02-25T05:48:04.717Z,99.90
2023-02-25T05:52:06.355Z,99.90
2023-02-25T05:56:11.904Z,99.90
2023-02-25T06:00:14.956Z,99.90
2023-02-25T06:04:16.838Z,99.90
2023-02-25T06:08:18.793Z,99.90
2023-02-25T06:12:20.431Z,99.90
2023-02-25T06:16:23.337Z,99.90
2023-02-25T06:20:25.143Z,99.90
2023-02-25T06:24:26.871Z,99.90
2023-02-25T06:28:29.874Z,99.90
2023-02-25T06:32:31.773Z,99.90
2023-02-25T06:36:33.729Z,99.90
2023-02-25T06:40:35.333Z,99.90
2023-02-25T06:44:37.109Z,99.90
2023-02-25T06:48:39.345Z,99.90
2023-02-25T06:52:41.166Z,99.90
2023-02-25T06:56:43.156Z,99.90
2023-02-25T07:00:45.011Z,99.90
2023-02-25T07:04:46.677Z,99.90
2023-02-25T07:08:48.367Z,99.90
2023-02-25T07:12:51.435Z,99.90
2023-02-25T07:16:53.880Z,99.90
2023-02-25T07:20:58.174Z,99.90
2023-02-25T07:25:00.426Z,99.90
2023-02-25T07:29:02.616Z,99.90
2023-02-25T07:33:05.906Z,99.90
2023-02-25T07:37:07.761Z,99.90
2023-02-25T07:41:15.576Z,99.90
2023-02-25T07:45:17.429Z,99.90
2023-02-25T07:49:19.258Z,99.90
2023-02-25T07:53:22.423Z,99.90
2023-02-25T07:57:24.094Z,99.90
2023-02-25T08:01:29.276Z,99.90
2023-02-25T08:05:34.837Z,99.90
2023-02-25T08:09:36.565Z,99.90
2023-02-25T08:13:38.535Z,99.90
2023-02-25T08:17:40.227Z,99.90
2023-02-25T08:21:42.760Z,99.90
2023-02-25T08:25:44.452Z,99.90
2023-02-25T08:29:46.098Z,99.90
2023-02-25T08:33:49.533Z,99.90
2023-02-25T08:37:52.794Z,99.90
2023-02-25T08:41:55.127Z,99.90
2023-02-25T08:45:56.799Z,99.90
2023-02-25T08:49:58.499Z,99.90
2023-02-25T08:54:02.507Z,99.90
2023-02-25T08:58:04.131Z,99.90
2023-02-25T09:02:07.439Z,99.90
2023-02-25T09:06:09.099Z,99.90
2023-02-25T09:10:12.749Z,99.90
2023-02-25T09:14:15.051Z,99.90
2023-02-25T09:18:16.657Z,99.90
2023-02-25T09:22:19.618Z,99.90
2023-02-25T09:26:22.596Z,99.90
2023-02-25T09:30:24.312Z,99.90
2023-02-25T09:34:25.982Z,99.90
2023-02-25T09:38:27.624Z,99.90
2023-02-25T09:42:46.755Z,99.90
2023-02-25T09:47:04.259Z,99.90
2023-02-25T09:51:32.179Z,99.90
2023-02-25T09:55:43.754Z,99.90
2023-02-25T09:59:47.283Z,99.90
2023-02-25T10:03:59.589Z,99.90
2023-02-25T10:08:10.537Z,99.90
2023-02-25T10:12:25.513Z,99.90
2023-02-25T10:16:37.613Z,99.90
2023-02-25T10:21:17.581Z,99.90
2023-02-25T10:25:24.881Z,99.90
2023-02-25T10:29:28.501Z,99.90
2023-02-25T10:33:34.289Z,99.90
2023-02-25T10:37:38.027Z,99.90
2023-02-25T10:41:39.712Z,99.90
2023-02-25T10:45:45.528Z,99.90
2023-02-25T10:50:43.280Z,99.90
2023-02-25T10:54:52.562Z,99.90
2023-02-25T10:59:51.600Z,99.90
2023-02-25T11:03:59.149Z,99.90
2023-02-25T11:08:01.951Z,99.90
2023-02-25T11:12:17.750Z,99.90
2023-02-25T11:16:19.524Z,99.90
2023-02-25T11:20:25.507Z,99.90
2023-02-25T11:24:33.447Z,99.90
2023-02-25T11:28:41.041Z,99.90
2023-02-25T11:32:54.766Z,99.90
2023-02-25T11:36:59.840Z,99.90
2023-02-25T11:41:01.725Z,99.90
2023-02-25T11:45:04.964Z,99.90
2023-02-25T11:49:09.321Z,99.90
2023-02-25T11:53:41.937Z,99.90
2023-02-25T11:58:06.299Z,99.90
2023-02-25T12:02:29.104Z,99.90
2023-02-25T12:06:33.447Z,99.90
2023-02-25T12:10:59.822Z,99.90
2023-02-25T12:15:32.577Z,99.90
2023-02-25T12:20:05.364Z,99.90
2023-02-25T12:24:56.883Z,99.90
2023-02-25T12:29:36.005Z,99.90
2023-02-25T12:34:23.910Z,99.90
2023-02-25T12:39:07.000Z,99.90
2023-02-25T12:43:44.871Z,99.90
2023-02-25T12:48:09.214Z,99.90
2023-02-25T12:52:29.165Z,99.90
2023-02-25T12:56:54.189Z,99.90
2023-02-25T13:01:23.122Z,99.90
2023-02-25T13:05:55.582Z,99.90
2023-02-25T13:10:35.030Z,99.90
2023-02-25T13:15:04.494Z,99.90
2023-02-25T13:19:24.698Z,99.90
2023-02-25T13:23:58.799Z,99.90
2023-02-25T13:28:19.214Z,99.10
2023-02-25T13:32:42.214Z,99.80
2023-02-25T13:37:28.133Z,94.60
2023-02-25T13:41:48.027Z,98.30
2023-02-25T13:46:12.232Z,99.20
2023-02-25T13:50:29.771Z,97.60
2023-02-25T13:54:46.722Z,95.40
2023-02-25T13:59:11.205Z,93.30
2023-02-25T14:03:49.369Z,87.00
2023-02-25T14:08:00.111Z,88.30
2023-02-25T14:12:18.142Z,90.90
2023-02-25T14:16:42.748Z,93.20
2023-02-25T14:21:14.581Z,93.10
2023-02-25T14:25:53.217Z,90.60
2023-02-25T14:30:13.194Z,88.10
2023-02-25T14:34:40.297Z,85.10
2023-02-25T14:39:03.968Z,84.30
2023-02-25T14:43:31.320Z,82.90
2023-02-25T14:47:42.212Z,81.70
2023-02-25T14:52:18.921Z,86.10
2023-02-25T14:56:48.766Z,90.50
2023-02-25T15:01:17.240Z,91.70
2023-02-25T15:05:38.024Z,94.60
2023-02-25T15:09:58.313Z,93.50
2023-02-25T15:14:31.968Z,91.90
2023-02-25T15:18:49.443Z,91.80
2023-02-25T15:22:53.892Z,92.40
2023-02-25T15:26:57.302Z,91.60
2023-02-25T15:31:02.036Z,92.00
2023-02-25T15:35:07.728Z,94.10
2023-02-25T15:39:12.335Z,94.90
2023-02-25T15:43:14.147Z,95.60
2023-02-25T15:47:22.169Z,96.00
2023-02-25T15:51:53.509Z,95.00
2023-02-25T15:56:04.029Z,96.50
2023-02-25T16:00:44.088Z,97.50
2023-02-25T16:04:48.864Z,98.60
2023-02-25T16:09:04.509Z,99.90
2023-02-25T16:13:14.596Z,98.80
2023-02-25T16:17:35.977Z,98.60
2023-02-25T16:21:46.424Z,99.20
2023-02-25T16:26:03.227Z,98.70
2023-02-25T16:30:44.285Z,99.30
2023-02-25T16:34:50.079Z,99.90
2023-02-25T16:39:10.761Z,99.90
2023-02-25T16:43:26.858Z,99.90
2023-02-25T16:47:34.763Z,99.90
2023-02-25T16:51:40.549Z,99.90
2023-02-25T16:55:42.286Z,99.90
2023-02-25T16:59:44.285Z,99.90
2023-02-25T17:03:49.097Z,99.90
2023-02-25T17:08:02.017Z,99.90
2023-02-25T17:12:04.474Z,99.90
2023-02-25T17:16:07.423Z,99.90
2023-02-25T17:20:16.991Z,99.90
2023-02-25T17:24:23.133Z,99.90
2023-02-25T17:28:29.263Z,99.90
2023-02-25T17:32:31.041Z,99.90
2023-02-25T17:36:40.875Z,99.90
2023-02-25T17:40:42.751Z,99.90
2023-02-25T17:44:47.689Z,99.90
2023-02-25T17:48:57.470Z,99.90
2023-02-25T17:53:00.311Z,99.90
2023-02-25T17:57:22.604Z,99.90
2023-02-25T18:01:31.049Z,99.90
2023-02-25T18:05:32.936Z,99.90
2023-02-25T18:09:39.111Z,99.90
2023-02-25T18:13:40.806Z,99.90
2023-02-25T18:17:48.731Z,99.90
2023-02-25T18:21:51.015Z,99.90
2023-02-25T18:26:17.518Z,99.90
2023-02-25T18:30:21.484Z,99.90
2023-02-25T18:34:23.131Z,99.90
2023-02-25T18:38:26.692Z,99.90
2023-02-25T18:42:28.339Z,99.90
2023-02-25T18:46:30.032Z,99.90
2023-02-25T18:50:32.652Z,99.90
2023-02-25T18:54:35.037Z,99.90
2023-02-25T18:58:36.621Z,99.90
2023-02-25T19:02:53.443Z,99.90
2023-02-25T19:06:55.164Z,99.90
2023-02-25T19:10:56.924Z,99.90
2023-02-25T19:15:01.440Z,99.90
2023-02-25T19:19:03.132Z,99.90
2023-02-25T19:23:04.821Z,99.90
2023-02-25T19:27:06.465Z,99.90
2023-02-25T19:31:08.754Z,99.90
2023-02-25T19:35:10.925Z,99.90
2023-02-25T19:39:12.529Z,99.90
2023-02-25T19:43:15.122Z,99.90
2023-02-25T19:47:16.749Z,99.90
2023-02-25T19:51:18.390Z,99.90
2023-02-25T19:55:20.223Z,99.90
2023-02-25T19:59:21.941Z,99.90
2023-02-25T20:03:23.586Z,99.90
2023-02-25T20:07:25.944Z,99.90
2023-02-25T20:11:27.911Z,99.90
2023-02-25T20:15:29.572Z,99.90
2023-02-25T20:19:32.424Z,99.90
2023-02-25T20:23:34.197Z,99.90
2023-02-25T20:27:36.915Z,99.90
2023-02-25T20:31:38.657Z,99.90
2023-02-25T20:35:40.929Z,99.90
2023-02-25T20:39:54.130Z,99.90
2023-02-25T20:43:56.034Z,99.90
2023-02-25T20:47:57.757Z,99.90
2023-02-25T20:51:59.707Z,99.90
2023-02-25T20:56:01.329Z,99.90
2023-02-25T21:00:03.358Z,99.90
2023-02-25T21:04:06.244Z,99.90
2023-02-25T21:08:08.189Z,99.90
2023-02-25T21:12:10.142Z,99.90
2023-02-25T21:16:12.028Z,99.90
2023-02-25T21:20:13.662Z,99.90
2023-02-25T21:24:15.570Z,99.90
2023-02-25T21:28:17.382Z,99.90
2023-02-25T21:32:19.051Z,99.90
2023-02-25T21:36:20.690Z,99.90
2023-02-25T21:40:22.346Z,99.90
2023-02-25T21:44:24.219Z,99.90
2023-02-25T21:48:29.720Z,99.90
2023-02-25T21:52:31.329Z,99.90
2023-02-25T21:56:34.097Z,99.90
2023-02-25T22:00:35.728Z,99.90
2023-02-25T22:04:37.395Z,99.90
2023-02-25T22:08:40.349Z,99.90
2023-02-25T22:12:42.031Z,99.90
2023-02-25T22:16:43.719Z,99.90
2023-02-25T22:20:45.371Z,99.90
2023-02-25T22:24:47.038Z,99.90
2023-02-25T22:28:49.032Z,99.90
2023-02-25T22:32:50.695Z,99.90
2023-02-25T22:36:52.383Z,99.90
2023-02-25T22:40:54.097Z,99.90
2023-02-25T22:44:55.745Z,99.90
2023-02-25T22:48:57.984Z,99.90
2023-02-25T22:52:59.627Z,99.90
2023-02-25T22:57:01.307Z,99.90
2023-02-25T23:01:03.108Z,99.90
2023-02-25T23:05:05.038Z,99.90
2023-02-25T23:09:06.729Z,99.90
2023-02-25T23:13:08.645Z,99.90
2023-02-25T23:17:10.269Z,99.90
2023-02-25T23:21:18.756Z,99.90
2023-02-25T23:25:20.438Z,99.90
2023-02-25T23:29:22.231Z,99.90
2023-02-25T23:33:23.950Z,99.90
2023-02-25T23:37:25.637Z,99.90
2023-02-25T23:41:28.775Z,99.90
2023-02-25T23:45:31.016Z,99.90
2023-02-25T23:49:32.740Z,99.90
2023-02-25T23:53:34.675Z,99.90
2023-02-25T23:57:36.307Z,99.90
